<?xml version="1.0" encoding="UTF-8" standalone="no" ?>
<gpx xmlns="http://www.topografix.com/GPX/1/1" xmlns:xsi="http://www.w3.org/2001/XMLSchema-instance" xsi:schemaLocation="http://www.topografix.com/GPX/1/1 http://www.topografix.com/GPX/1/1/gpx.xsd" version="1.1" creator="VisuGPX - https://www.visugpx.com">
  <metadata>
    <name>le lauzon 05</name>
    <desc><![CDATA[Départ et arrivée au chalet gioberney]]></desc>
  </metadata>
  <trk>
    <name><![CDATA[Lac Bleu - Lac Lauzon]]></name>
    <trkseg>
      <trkpt lat="44.84148" lon="6.28115">
        <ele>1643</ele>
        <time>2017-07-04T17:37:47+02:00</time>
      </trkpt>
      <trkpt lat="44.84166" lon="6.28102">
        <ele>1647</ele>
        <time>2017-07-04T17:37:52+02:00</time>
      </trkpt>
      <trkpt lat="44.8419" lon="6.28095">
        <ele>1648</ele>
        <time>2017-07-04T17:37:57+02:00</time>
      </trkpt>
      <trkpt lat="44.84208" lon="6.28097">
        <ele>1649</ele>
        <time>2017-07-04T17:38:02+02:00</time>
      </trkpt>
      <trkpt lat="44.84228" lon="6.28086">
        <ele>1651</ele>
        <time>2017-07-04T17:38:07+02:00</time>
      </trkpt>
      <trkpt lat="44.84255" lon="6.28072">
        <ele>1653</ele>
        <time>2017-07-04T17:38:12+02:00</time>
      </trkpt>
      <trkpt lat="44.8427" lon="6.28072">
        <ele>1654</ele>
        <time>2017-07-04T17:38:17+02:00</time>
      </trkpt>
      <trkpt lat="44.84285" lon="6.28056">
        <ele>1656</ele>
        <time>2017-07-04T17:38:22+02:00</time>
      </trkpt>
      <trkpt lat="44.8432" lon="6.28043">
        <ele>1658</ele>
        <time>2017-07-04T17:38:27+02:00</time>
      </trkpt>
      <trkpt lat="44.84355" lon="6.28028">
        <ele>1663</ele>
        <time>2017-07-04T17:38:32+02:00</time>
      </trkpt>
      <trkpt lat="44.84391" lon="6.28017">
        <ele>1668</ele>
        <time>2017-07-04T17:38:37+02:00</time>
      </trkpt>
      <trkpt lat="44.84426" lon="6.28009">
        <ele>1674</ele>
        <time>2017-07-04T17:38:42+02:00</time>
      </trkpt>
      <trkpt lat="44.84463" lon="6.28005">
        <ele>1682</ele>
        <time>2017-07-04T17:38:47+02:00</time>
      </trkpt>
      <trkpt lat="44.84499" lon="6.28005">
        <ele>1690</ele>
        <time>2017-07-04T17:38:52+02:00</time>
      </trkpt>
      <trkpt lat="44.84529" lon="6.27976">
        <ele>1702</ele>
        <time>2017-07-04T17:38:57+02:00</time>
      </trkpt>
      <trkpt lat="44.84556" lon="6.27943">
        <ele>1714</ele>
        <time>2017-07-04T17:39:02+02:00</time>
      </trkpt>
      <trkpt lat="44.84591" lon="6.2793">
        <ele>1725</ele>
        <time>2017-07-04T17:39:07+02:00</time>
      </trkpt>
      <trkpt lat="44.84614" lon="6.27922">
        <ele>1733</ele>
        <time>2017-07-04T17:39:12+02:00</time>
      </trkpt>
      <trkpt lat="44.84619" lon="6.27912">
        <ele>1739</ele>
        <time>2017-07-04T17:39:17+02:00</time>
      </trkpt>
      <trkpt lat="44.84618" lon="6.27901">
        <ele>1745</ele>
        <time>2017-07-04T17:39:22+02:00</time>
      </trkpt>
      <trkpt lat="44.84627" lon="6.27903">
        <ele>1747</ele>
        <time>2017-07-04T17:39:27+02:00</time>
      </trkpt>
      <trkpt lat="44.84609" lon="6.27875">
        <ele>1758</ele>
        <time>2017-07-04T17:39:32+02:00</time>
      </trkpt>
      <trkpt lat="44.84594" lon="6.27863">
        <ele>1760</ele>
        <time>2017-07-04T17:39:37+02:00</time>
      </trkpt>
      <trkpt lat="44.84562" lon="6.27838">
        <ele>1766</ele>
        <time>2017-07-04T17:39:42+02:00</time>
      </trkpt>
      <trkpt lat="44.84561" lon="6.27819">
        <ele>1776</ele>
        <time>2017-07-04T17:39:47+02:00</time>
      </trkpt>
      <trkpt lat="44.84567" lon="6.27824">
        <ele>1775</ele>
        <time>2017-07-04T17:39:52+02:00</time>
      </trkpt>
      <trkpt lat="44.84571" lon="6.2781">
        <ele>1783</ele>
        <time>2017-07-04T17:39:57+02:00</time>
      </trkpt>
      <trkpt lat="44.84581" lon="6.27817">
        <ele>1781</ele>
        <time>2017-07-04T17:40:02+02:00</time>
      </trkpt>
      <trkpt lat="44.84593" lon="6.27814">
        <ele>1788</ele>
        <time>2017-07-04T17:40:07+02:00</time>
      </trkpt>
      <trkpt lat="44.84584" lon="6.278">
        <ele>1792</ele>
        <time>2017-07-04T17:40:12+02:00</time>
      </trkpt>
      <trkpt lat="44.84575" lon="6.27801">
        <ele>1790</ele>
        <time>2017-07-04T17:40:17+02:00</time>
      </trkpt>
      <trkpt lat="44.84552" lon="6.27777">
        <ele>1800</ele>
        <time>2017-07-04T17:40:22+02:00</time>
      </trkpt>
      <trkpt lat="44.8457" lon="6.27781">
        <ele>1801</ele>
        <time>2017-07-04T17:40:27+02:00</time>
      </trkpt>
      <trkpt lat="44.8455" lon="6.27758">
        <ele>1811</ele>
        <time>2017-07-04T17:40:32+02:00</time>
      </trkpt>
      <trkpt lat="44.84582" lon="6.27767">
        <ele>1811</ele>
        <time>2017-07-04T17:40:37+02:00</time>
      </trkpt>
      <trkpt lat="44.84563" lon="6.27747">
        <ele>1820</ele>
        <time>2017-07-04T17:40:42+02:00</time>
      </trkpt>
      <trkpt lat="44.8459" lon="6.2775">
        <ele>1824</ele>
        <time>2017-07-04T17:40:47+02:00</time>
      </trkpt>
      <trkpt lat="44.84617" lon="6.2776">
        <ele>1829</ele>
        <time>2017-07-04T17:40:52+02:00</time>
      </trkpt>
      <trkpt lat="44.84589" lon="6.27729">
        <ele>1844</ele>
        <time>2017-07-04T17:40:57+02:00</time>
      </trkpt>
      <trkpt lat="44.84624" lon="6.27742">
        <ele>1845</ele>
        <time>2017-07-04T17:41:02+02:00</time>
      </trkpt>
      <trkpt lat="44.84649" lon="6.27754">
        <ele>1846</ele>
        <time>2017-07-04T17:41:07+02:00</time>
      </trkpt>
      <trkpt lat="44.84666" lon="6.27773">
        <ele>1842</ele>
        <time>2017-07-04T17:41:12+02:00</time>
      </trkpt>
      <trkpt lat="44.84661" lon="6.27746">
        <ele>1856</ele>
        <time>2017-07-04T17:41:17+02:00</time>
      </trkpt>
      <trkpt lat="44.84687" lon="6.27764">
        <ele>1857</ele>
        <time>2017-07-04T17:41:22+02:00</time>
      </trkpt>
      <trkpt lat="44.847" lon="6.27776">
        <ele>1855</ele>
        <time>2017-07-04T17:41:27+02:00</time>
      </trkpt>
      <trkpt lat="44.84724" lon="6.27774">
        <ele>1866</ele>
        <time>2017-07-04T17:41:32+02:00</time>
      </trkpt>
      <trkpt lat="44.84758" lon="6.27777">
        <ele>1876</ele>
        <time>2017-07-04T17:41:37+02:00</time>
      </trkpt>
      <trkpt lat="44.84783" lon="6.27765">
        <ele>1892</ele>
        <time>2017-07-04T17:41:42+02:00</time>
      </trkpt>
      <trkpt lat="44.84801" lon="6.27771">
        <ele>1890</ele>
        <time>2017-07-04T17:41:47+02:00</time>
      </trkpt>
      <trkpt lat="44.84826" lon="6.27756">
        <ele>1908</ele>
        <time>2017-07-04T17:41:52+02:00</time>
      </trkpt>
      <trkpt lat="44.84859" lon="6.27736">
        <ele>1928</ele>
        <time>2017-07-04T17:41:57+02:00</time>
      </trkpt>
      <trkpt lat="44.84896" lon="6.2773">
        <ele>1936</ele>
        <time>2017-07-04T17:42:02+02:00</time>
      </trkpt>
      <trkpt lat="44.84922" lon="6.27724">
        <ele>1943</ele>
        <time>2017-07-04T17:42:07+02:00</time>
      </trkpt>
      <trkpt lat="44.84944" lon="6.27733">
        <ele>1940</ele>
        <time>2017-07-04T17:42:12+02:00</time>
      </trkpt>
      <trkpt lat="44.84967" lon="6.27729">
        <ele>1948</ele>
        <time>2017-07-04T17:42:17+02:00</time>
      </trkpt>
      <trkpt lat="44.84996" lon="6.27728">
        <ele>1955</ele>
        <time>2017-07-04T17:42:22+02:00</time>
      </trkpt>
      <trkpt lat="44.84993" lon="6.27718">
        <ele>1961</ele>
        <time>2017-07-04T17:42:27+02:00</time>
      </trkpt>
      <trkpt lat="44.85002" lon="6.27721">
        <ele>1961</ele>
        <time>2017-07-04T17:42:32+02:00</time>
      </trkpt>
      <trkpt lat="44.85016" lon="6.27735">
        <ele>1954</ele>
        <time>2017-07-04T17:42:37+02:00</time>
      </trkpt>
      <trkpt lat="44.85029" lon="6.27756">
        <ele>1945</ele>
        <time>2017-07-04T17:42:42+02:00</time>
      </trkpt>
      <trkpt lat="44.85032" lon="6.2773">
        <ele>1959</ele>
        <time>2017-07-04T17:42:47+02:00</time>
      </trkpt>
      <trkpt lat="44.85047" lon="6.27749">
        <ele>1950</ele>
        <time>2017-07-04T17:42:52+02:00</time>
      </trkpt>
      <trkpt lat="44.85044" lon="6.27722">
        <ele>1965</ele>
        <time>2017-07-04T17:42:57+02:00</time>
      </trkpt>
      <trkpt lat="44.85063" lon="6.27729">
        <ele>1964</ele>
        <time>2017-07-04T17:43:02+02:00</time>
      </trkpt>
      <trkpt lat="44.85043" lon="6.27702">
        <ele>1977</ele>
        <time>2017-07-04T17:43:07+02:00</time>
      </trkpt>
      <trkpt lat="44.85064" lon="6.27702">
        <ele>1978</ele>
        <time>2017-07-04T17:43:12+02:00</time>
      </trkpt>
      <trkpt lat="44.85053" lon="6.27688">
        <ele>1985</ele>
        <time>2017-07-04T17:43:17+02:00</time>
      </trkpt>
      <trkpt lat="44.85076" lon="6.27692">
        <ele>1984</ele>
        <time>2017-07-04T17:43:22+02:00</time>
      </trkpt>
      <trkpt lat="44.85088" lon="6.27688">
        <ele>1987</ele>
        <time>2017-07-04T17:43:27+02:00</time>
      </trkpt>
      <trkpt lat="44.85078" lon="6.27677">
        <ele>1992</ele>
        <time>2017-07-04T17:43:32+02:00</time>
      </trkpt>
      <trkpt lat="44.85108" lon="6.2767">
        <ele>1996</ele>
        <time>2017-07-04T17:43:37+02:00</time>
      </trkpt>
      <trkpt lat="44.85125" lon="6.27663">
        <ele>1999</ele>
        <time>2017-07-04T17:43:42+02:00</time>
      </trkpt>
      <trkpt lat="44.85118" lon="6.27655">
        <ele>2003</ele>
        <time>2017-07-04T17:43:47+02:00</time>
      </trkpt>
      <trkpt lat="44.85139" lon="6.27652">
        <ele>2004</ele>
        <time>2017-07-04T17:43:52+02:00</time>
      </trkpt>
      <trkpt lat="44.85127" lon="6.27643">
        <ele>2008</ele>
        <time>2017-07-04T17:43:57+02:00</time>
      </trkpt>
      <trkpt lat="44.8516" lon="6.27641">
        <ele>2009</ele>
        <time>2017-07-04T17:44:02+02:00</time>
      </trkpt>
      <trkpt lat="44.85157" lon="6.2763">
        <ele>2013</ele>
        <time>2017-07-04T17:44:07+02:00</time>
      </trkpt>
      <trkpt lat="44.85177" lon="6.27616">
        <ele>2019</ele>
        <time>2017-07-04T17:44:12+02:00</time>
      </trkpt>
      <trkpt lat="44.85216" lon="6.27597">
        <ele>2026</ele>
        <time>2017-07-04T17:44:17+02:00</time>
      </trkpt>
      <trkpt lat="44.85225" lon="6.2759">
        <ele>2028</ele>
        <time>2017-07-04T17:44:22+02:00</time>
      </trkpt>
      <trkpt lat="44.8521" lon="6.27546">
        <ele>2043</ele>
        <time>2017-07-04T17:44:27+02:00</time>
      </trkpt>
      <trkpt lat="44.85193" lon="6.27526">
        <ele>2051</ele>
        <time>2017-07-04T17:44:32+02:00</time>
      </trkpt>
      <trkpt lat="44.85205" lon="6.27501">
        <ele>2058</ele>
        <time>2017-07-04T17:44:37+02:00</time>
      </trkpt>
      <trkpt lat="44.85225" lon="6.27477">
        <ele>2063</ele>
        <time>2017-07-04T17:44:42+02:00</time>
      </trkpt>
      <trkpt lat="44.85224" lon="6.27438">
        <ele>2075</ele>
        <time>2017-07-04T17:44:47+02:00</time>
      </trkpt>
      <trkpt lat="44.85224" lon="6.27387">
        <ele>2091</ele>
        <time>2017-07-04T17:44:52+02:00</time>
      </trkpt>
      <trkpt lat="44.85225" lon="6.27337">
        <ele>2108</ele>
        <time>2017-07-04T17:44:57+02:00</time>
      </trkpt>
      <trkpt lat="44.85215" lon="6.27331">
        <ele>2113</ele>
        <time>2017-07-04T17:45:02+02:00</time>
      </trkpt>
      <trkpt lat="44.85195" lon="6.27339">
        <ele>2113</ele>
        <time>2017-07-04T17:45:07+02:00</time>
      </trkpt>
      <trkpt lat="44.85156" lon="6.27314">
        <ele>2133</ele>
        <time>2017-07-04T17:45:12+02:00</time>
      </trkpt>
      <trkpt lat="44.85135" lon="6.27307">
        <ele>2141</ele>
        <time>2017-07-04T17:45:17+02:00</time>
      </trkpt>
      <trkpt lat="44.85113" lon="6.27312">
        <ele>2144</ele>
        <time>2017-07-04T17:45:22+02:00</time>
      </trkpt>
      <trkpt lat="44.85087" lon="6.27302">
        <ele>2152</ele>
        <time>2017-07-04T17:45:27+02:00</time>
      </trkpt>
      <trkpt lat="44.85068" lon="6.27298">
        <ele>2152</ele>
        <time>2017-07-04T17:45:32+02:00</time>
      </trkpt>
      <trkpt lat="44.8507" lon="6.27258">
        <ele>2165</ele>
        <time>2017-07-04T17:45:37+02:00</time>
      </trkpt>
      <trkpt lat="44.85089" lon="6.27214">
        <ele>2182</ele>
        <time>2017-07-04T17:45:42+02:00</time>
      </trkpt>
      <trkpt lat="44.85054" lon="6.27197">
        <ele>2184</ele>
        <time>2017-07-04T17:45:47+02:00</time>
      </trkpt>
      <trkpt lat="44.85018" lon="6.27192">
        <ele>2181</ele>
        <time>2017-07-04T17:45:52+02:00</time>
      </trkpt>
      <trkpt lat="44.85" lon="6.27201">
        <ele>2158</ele>
        <time>2017-07-04T17:45:57+02:00</time>
      </trkpt>
      <trkpt lat="44.84977" lon="6.27208">
        <ele>2171</ele>
        <time>2017-07-04T17:46:02+02:00</time>
      </trkpt>
      <trkpt lat="44.84947" lon="6.27212">
        <ele>2167</ele>
        <time>2017-07-04T17:46:07+02:00</time>
      </trkpt>
      <trkpt lat="44.84913" lon="6.27211">
        <ele>2165</ele>
        <time>2017-07-04T17:46:12+02:00</time>
      </trkpt>
      <trkpt lat="44.84873" lon="6.27215">
        <ele>2159</ele>
        <time>2017-07-04T17:46:17+02:00</time>
      </trkpt>
      <trkpt lat="44.84836" lon="6.27217">
        <ele>2155</ele>
        <time>2017-07-04T17:46:22+02:00</time>
      </trkpt>
      <trkpt lat="44.84803" lon="6.27196">
        <ele>2149</ele>
        <time>2017-07-04T17:46:27+02:00</time>
      </trkpt>
      <trkpt lat="44.84788" lon="6.27181">
        <ele>2147</ele>
        <time>2017-07-04T17:46:32+02:00</time>
      </trkpt>
      <trkpt lat="44.84768" lon="6.27176">
        <ele>2140</ele>
        <time>2017-07-04T17:46:37+02:00</time>
      </trkpt>
      <trkpt lat="44.84734" lon="6.27159">
        <ele>2133</ele>
        <time>2017-07-04T17:46:42+02:00</time>
      </trkpt>
      <trkpt lat="44.84698" lon="6.27147">
        <ele>2128</ele>
        <time>2017-07-04T17:46:47+02:00</time>
      </trkpt>
      <trkpt lat="44.84663" lon="6.27134">
        <ele>2122</ele>
        <time>2017-07-04T17:46:52+02:00</time>
      </trkpt>
      <trkpt lat="44.84628" lon="6.27118">
        <ele>2120</ele>
        <time>2017-07-04T17:46:57+02:00</time>
      </trkpt>
      <trkpt lat="44.846" lon="6.27103">
        <ele>2118</ele>
        <time>2017-07-04T17:47:02+02:00</time>
      </trkpt>
      <trkpt lat="44.8457" lon="6.27094">
        <ele>2112</ele>
        <time>2017-07-04T17:47:07+02:00</time>
      </trkpt>
      <trkpt lat="44.84551" lon="6.27095">
        <ele>2107</ele>
        <time>2017-07-04T17:47:12+02:00</time>
      </trkpt>
      <trkpt lat="44.84524" lon="6.271">
        <ele>2099</ele>
        <time>2017-07-04T17:47:17+02:00</time>
      </trkpt>
      <trkpt lat="44.84497" lon="6.27106">
        <ele>2092</ele>
        <time>2017-07-04T17:47:22+02:00</time>
      </trkpt>
      <trkpt lat="44.84481" lon="6.27124">
        <ele>2089</ele>
        <time>2017-07-04T17:47:27+02:00</time>
      </trkpt>
      <trkpt lat="44.84455" lon="6.27143">
        <ele>2085</ele>
        <time>2017-07-04T17:47:32+02:00</time>
      </trkpt>
      <trkpt lat="44.84443" lon="6.27167">
        <ele>2092</ele>
        <time>2017-07-04T17:47:37+02:00</time>
      </trkpt>
      <trkpt lat="44.84425" lon="6.27174">
        <ele>2077</ele>
        <time>2017-07-04T17:47:42+02:00</time>
      </trkpt>
      <trkpt lat="44.8441" lon="6.27181">
        <ele>2074</ele>
        <time>2017-07-04T17:47:47+02:00</time>
      </trkpt>
      <trkpt lat="44.84393" lon="6.27202">
        <ele>2069</ele>
        <time>2017-07-04T17:47:52+02:00</time>
      </trkpt>
      <trkpt lat="44.84381" lon="6.27209">
        <ele>2067</ele>
        <time>2017-07-04T17:47:57+02:00</time>
      </trkpt>
      <trkpt lat="44.84381" lon="6.27223">
        <ele>2065</ele>
        <time>2017-07-04T17:48:02+02:00</time>
      </trkpt>
      <trkpt lat="44.84387" lon="6.27229">
        <ele>2064</ele>
        <time>2017-07-04T17:48:07+02:00</time>
      </trkpt>
      <trkpt lat="44.8439" lon="6.27243">
        <ele>2062</ele>
        <time>2017-07-04T17:48:12+02:00</time>
      </trkpt>
      <trkpt lat="44.84387" lon="6.27256">
        <ele>2059</ele>
        <time>2017-07-04T17:48:17+02:00</time>
      </trkpt>
      <trkpt lat="44.84376" lon="6.27274">
        <ele>2053</ele>
        <time>2017-07-04T17:48:22+02:00</time>
      </trkpt>
      <trkpt lat="44.84365" lon="6.27306">
        <ele>2045</ele>
        <time>2017-07-04T17:48:27+02:00</time>
      </trkpt>
      <trkpt lat="44.84372" lon="6.27327">
        <ele>2039</ele>
        <time>2017-07-04T17:48:32+02:00</time>
      </trkpt>
      <trkpt lat="44.84395" lon="6.2734">
        <ele>2034</ele>
        <time>2017-07-04T17:48:37+02:00</time>
      </trkpt>
      <trkpt lat="44.84408" lon="6.2733">
        <ele>2037</ele>
        <time>2017-07-04T17:48:42+02:00</time>
      </trkpt>
      <trkpt lat="44.84429" lon="6.27315">
        <ele>2038</ele>
        <time>2017-07-04T17:48:47+02:00</time>
      </trkpt>
      <trkpt lat="44.84429" lon="6.27357">
        <ele>2026</ele>
        <time>2017-07-04T17:48:52+02:00</time>
      </trkpt>
      <trkpt lat="44.84439" lon="6.27351">
        <ele>2026</ele>
        <time>2017-07-04T17:48:57+02:00</time>
      </trkpt>
      <trkpt lat="44.84444" lon="6.27368">
        <ele>2021</ele>
        <time>2017-07-04T17:49:02+02:00</time>
      </trkpt>
      <trkpt lat="44.84456" lon="6.27358">
        <ele>2021</ele>
        <time>2017-07-04T17:49:07+02:00</time>
      </trkpt>
      <trkpt lat="44.84472" lon="6.27349">
        <ele>2020</ele>
        <time>2017-07-04T17:49:12+02:00</time>
      </trkpt>
      <trkpt lat="44.84491" lon="6.27345">
        <ele>2016</ele>
        <time>2017-07-04T17:49:17+02:00</time>
      </trkpt>
      <trkpt lat="44.84507" lon="6.27342">
        <ele>2016</ele>
        <time>2017-07-04T17:49:22+02:00</time>
      </trkpt>
      <trkpt lat="44.84533" lon="6.27337">
        <ele>2020</ele>
        <time>2017-07-04T17:49:27+02:00</time>
      </trkpt>
      <trkpt lat="44.84549" lon="6.27335">
        <ele>2022</ele>
        <time>2017-07-04T17:49:32+02:00</time>
      </trkpt>
      <trkpt lat="44.8456" lon="6.2735">
        <ele>2022</ele>
        <time>2017-07-04T17:49:37+02:00</time>
      </trkpt>
      <trkpt lat="44.84587" lon="6.27385">
        <ele>2023</ele>
        <time>2017-07-04T17:49:42+02:00</time>
      </trkpt>
      <trkpt lat="44.84603" lon="6.27402">
        <ele>2030</ele>
        <time>2017-07-04T17:49:47+02:00</time>
      </trkpt>
      <trkpt lat="44.84598" lon="6.27416">
        <ele>2026</ele>
        <time>2017-07-04T17:49:52+02:00</time>
      </trkpt>
      <trkpt lat="44.84564" lon="6.2741">
        <ele>2016</ele>
        <time>2017-07-04T17:49:57+02:00</time>
      </trkpt>
      <trkpt lat="44.84515" lon="6.274">
        <ele>2010</ele>
        <time>2017-07-04T17:50:02+02:00</time>
      </trkpt>
      <trkpt lat="44.84481" lon="6.27401">
        <ele>2010</ele>
        <time>2017-07-04T17:50:07+02:00</time>
      </trkpt>
      <trkpt lat="44.84444" lon="6.27399">
        <ele>2015</ele>
        <time>2017-07-04T17:50:12+02:00</time>
      </trkpt>
      <trkpt lat="44.84407" lon="6.27404">
        <ele>2017</ele>
        <time>2017-07-04T17:50:17+02:00</time>
      </trkpt>
      <trkpt lat="44.8437" lon="6.27396">
        <ele>2019</ele>
        <time>2017-07-04T17:50:22+02:00</time>
      </trkpt>
      <trkpt lat="44.84351" lon="6.27412">
        <ele>2015</ele>
        <time>2017-07-04T17:50:27+02:00</time>
      </trkpt>
      <trkpt lat="44.84322" lon="6.27412">
        <ele>2014</ele>
        <time>2017-07-04T17:50:32+02:00</time>
      </trkpt>
      <trkpt lat="44.8429" lon="6.27437">
        <ele>2007</ele>
        <time>2017-07-04T17:50:37+02:00</time>
      </trkpt>
      <trkpt lat="44.84274" lon="6.27446">
        <ele>2005</ele>
        <time>2017-07-04T17:50:42+02:00</time>
      </trkpt>
      <trkpt lat="44.8423" lon="6.27441">
        <ele>2003</ele>
        <time>2017-07-04T17:50:47+02:00</time>
      </trkpt>
      <trkpt lat="44.84193" lon="6.27442">
        <ele>2001</ele>
        <time>2017-07-04T17:50:52+02:00</time>
      </trkpt>
      <trkpt lat="44.8416" lon="6.27445">
        <ele>2000</ele>
        <time>2017-07-04T17:50:57+02:00</time>
      </trkpt>
      <trkpt lat="44.84134" lon="6.27443">
        <ele>2000</ele>
        <time>2017-07-04T17:51:02+02:00</time>
      </trkpt>
      <trkpt lat="44.84103" lon="6.27445">
        <ele>1999</ele>
        <time>2017-07-04T17:51:07+02:00</time>
      </trkpt>
      <trkpt lat="44.84084" lon="6.27453">
        <ele>1999</ele>
        <time>2017-07-04T17:51:12+02:00</time>
      </trkpt>
      <trkpt lat="44.84066" lon="6.27452">
        <ele>1998</ele>
        <time>2017-07-04T17:51:17+02:00</time>
      </trkpt>
      <trkpt lat="44.84059" lon="6.27448">
        <ele>1998</ele>
        <time>2017-07-04T17:51:22+02:00</time>
      </trkpt>
      <trkpt lat="44.84048" lon="6.27452">
        <ele>1998</ele>
        <time>2017-07-04T17:51:27+02:00</time>
      </trkpt>
      <trkpt lat="44.84034" lon="6.27447">
        <ele>1998</ele>
        <time>2017-07-04T17:51:32+02:00</time>
      </trkpt>
      <trkpt lat="44.84033" lon="6.27426">
        <ele>2000</ele>
        <time>2017-07-04T17:51:37+02:00</time>
      </trkpt>
      <trkpt lat="44.84025" lon="6.27429">
        <ele>1999</ele>
        <time>2017-07-04T17:51:42+02:00</time>
      </trkpt>
      <trkpt lat="44.84013" lon="6.27413">
        <ele>2001</ele>
        <time>2017-07-04T17:51:47+02:00</time>
      </trkpt>
      <trkpt lat="44.84" lon="6.27421">
        <ele>2000</ele>
        <time>2017-07-04T17:51:52+02:00</time>
      </trkpt>
      <trkpt lat="44.83984" lon="6.27419">
        <ele>2002</ele>
        <time>2017-07-04T17:51:57+02:00</time>
      </trkpt>
      <trkpt lat="44.83958" lon="6.27412">
        <ele>2006</ele>
        <time>2017-07-04T17:52:02+02:00</time>
      </trkpt>
      <trkpt lat="44.83947" lon="6.27418">
        <ele>2005</ele>
        <time>2017-07-04T17:52:07+02:00</time>
      </trkpt>
      <trkpt lat="44.83931" lon="6.27436">
        <ele>2001</ele>
        <time>2017-07-04T17:52:12+02:00</time>
      </trkpt>
      <trkpt lat="44.83916" lon="6.27465">
        <ele>1993</ele>
        <time>2017-07-04T17:52:17+02:00</time>
      </trkpt>
      <trkpt lat="44.83942" lon="6.27456">
        <ele>1995</ele>
        <time>2017-07-04T17:52:22+02:00</time>
      </trkpt>
      <trkpt lat="44.8392" lon="6.27497">
        <ele>1983</ele>
        <time>2017-07-04T17:52:27+02:00</time>
      </trkpt>
      <trkpt lat="44.83933" lon="6.27503">
        <ele>1982</ele>
        <time>2017-07-04T17:52:32+02:00</time>
      </trkpt>
      <trkpt lat="44.83907" lon="6.27536">
        <ele>1970</ele>
        <time>2017-07-04T17:52:37+02:00</time>
      </trkpt>
      <trkpt lat="44.83917" lon="6.27538">
        <ele>1968</ele>
        <time>2017-07-04T17:52:42+02:00</time>
      </trkpt>
      <trkpt lat="44.83909" lon="6.27549">
        <ele>1964</ele>
        <time>2017-07-04T17:52:47+02:00</time>
      </trkpt>
      <trkpt lat="44.83896" lon="6.27578">
        <ele>1953</ele>
        <time>2017-07-04T17:52:52+02:00</time>
      </trkpt>
      <trkpt lat="44.83878" lon="6.27577">
        <ele>1953</ele>
        <time>2017-07-04T17:52:57+02:00</time>
      </trkpt>
      <trkpt lat="44.83867" lon="6.27581">
        <ele>1951</ele>
        <time>2017-07-04T17:53:02+02:00</time>
      </trkpt>
      <trkpt lat="44.83862" lon="6.27591">
        <ele>1945</ele>
        <time>2017-07-04T17:53:07+02:00</time>
      </trkpt>
      <trkpt lat="44.83843" lon="6.27592">
        <ele>1944</ele>
        <time>2017-07-04T17:53:12+02:00</time>
      </trkpt>
      <trkpt lat="44.83801" lon="6.27598">
        <ele>1951</ele>
        <time>2017-07-04T17:53:17+02:00</time>
      </trkpt>
      <trkpt lat="44.83784" lon="6.27622">
        <ele>1941</ele>
        <time>2017-07-04T17:53:22+02:00</time>
      </trkpt>
      <trkpt lat="44.8376" lon="6.2764">
        <ele>1938</ele>
        <time>2017-07-04T17:53:27+02:00</time>
      </trkpt>
      <trkpt lat="44.83745" lon="6.27665">
        <ele>1926</ele>
        <time>2017-07-04T17:53:32+02:00</time>
      </trkpt>
      <trkpt lat="44.8371" lon="6.27675">
        <ele>1930</ele>
        <time>2017-07-04T17:53:37+02:00</time>
      </trkpt>
      <trkpt lat="44.837" lon="6.27695">
        <ele>1922</ele>
        <time>2017-07-04T17:53:42+02:00</time>
      </trkpt>
      <trkpt lat="44.83679" lon="6.27702">
        <ele>1924</ele>
        <time>2017-07-04T17:53:47+02:00</time>
      </trkpt>
      <trkpt lat="44.83693" lon="6.2771">
        <ele>1916</ele>
        <time>2017-07-04T17:53:52+02:00</time>
      </trkpt>
      <trkpt lat="44.83662" lon="6.27725">
        <ele>1915</ele>
        <time>2017-07-04T17:53:57+02:00</time>
      </trkpt>
      <trkpt lat="44.83644" lon="6.27733">
        <ele>1912</ele>
        <time>2017-07-04T17:54:02+02:00</time>
      </trkpt>
      <trkpt lat="44.8362" lon="6.27763">
        <ele>1899</ele>
        <time>2017-07-04T17:54:07+02:00</time>
      </trkpt>
      <trkpt lat="44.83585" lon="6.27781">
        <ele>1895</ele>
        <time>2017-07-04T17:54:12+02:00</time>
      </trkpt>
      <trkpt lat="44.83561" lon="6.27787">
        <ele>1891</ele>
        <time>2017-07-04T17:54:17+02:00</time>
      </trkpt>
      <trkpt lat="44.83517" lon="6.27791">
        <ele>1887</ele>
        <time>2017-07-04T17:54:22+02:00</time>
      </trkpt>
      <trkpt lat="44.83549" lon="6.27816">
        <ele>1878</ele>
        <time>2017-07-04T17:54:27+02:00</time>
      </trkpt>
      <trkpt lat="44.83562" lon="6.27831">
        <ele>1872</ele>
        <time>2017-07-04T17:54:32+02:00</time>
      </trkpt>
      <trkpt lat="44.8358" lon="6.27823">
        <ele>1876</ele>
        <time>2017-07-04T17:54:37+02:00</time>
      </trkpt>
      <trkpt lat="44.83608" lon="6.27827">
        <ele>1871</ele>
        <time>2017-07-04T17:54:42+02:00</time>
      </trkpt>
      <trkpt lat="44.83653" lon="6.27826">
        <ele>1865</ele>
        <time>2017-07-04T17:54:47+02:00</time>
      </trkpt>
      <trkpt lat="44.83603" lon="6.27869">
        <ele>1850</ele>
        <time>2017-07-04T17:54:52+02:00</time>
      </trkpt>
      <trkpt lat="44.83639" lon="6.27867">
        <ele>1847</ele>
        <time>2017-07-04T17:54:57+02:00</time>
      </trkpt>
      <trkpt lat="44.83685" lon="6.27856">
        <ele>1844</ele>
        <time>2017-07-04T17:55:02+02:00</time>
      </trkpt>
      <trkpt lat="44.83662" lon="6.27881">
        <ele>1837</ele>
        <time>2017-07-04T17:55:07+02:00</time>
      </trkpt>
      <trkpt lat="44.83704" lon="6.27865">
        <ele>1834</ele>
        <time>2017-07-04T17:55:12+02:00</time>
      </trkpt>
      <trkpt lat="44.83695" lon="6.27895">
        <ele>1822</ele>
        <time>2017-07-04T17:55:17+02:00</time>
      </trkpt>
      <trkpt lat="44.83745" lon="6.2787">
        <ele>1822</ele>
        <time>2017-07-04T17:55:22+02:00</time>
      </trkpt>
      <trkpt lat="44.83792" lon="6.27873">
        <ele>1807</ele>
        <time>2017-07-04T17:55:27+02:00</time>
      </trkpt>
      <trkpt lat="44.83844" lon="6.27859">
        <ele>1796</ele>
        <time>2017-07-04T17:55:32+02:00</time>
      </trkpt>
      <trkpt lat="44.83866" lon="6.2787">
        <ele>1786</ele>
        <time>2017-07-04T17:55:37+02:00</time>
      </trkpt>
      <trkpt lat="44.83922" lon="6.27837">
        <ele>1785</ele>
        <time>2017-07-04T17:55:42+02:00</time>
      </trkpt>
      <trkpt lat="44.83921" lon="6.2788">
        <ele>1766</ele>
        <time>2017-07-04T17:55:47+02:00</time>
      </trkpt>
      <trkpt lat="44.83986" lon="6.27887">
        <ele>1763</ele>
        <time>2017-07-04T17:55:52+02:00</time>
      </trkpt>
      <trkpt lat="44.84007" lon="6.27873">
        <ele>1770</ele>
        <time>2017-07-04T17:55:57+02:00</time>
      </trkpt>
      <trkpt lat="44.84035" lon="6.27879">
        <ele>1761</ele>
        <time>2017-07-04T17:56:02+02:00</time>
      </trkpt>
      <trkpt lat="44.84101" lon="6.27871">
        <ele>1751</ele>
        <time>2017-07-04T17:56:07+02:00</time>
      </trkpt>
      <trkpt lat="44.84181" lon="6.27837">
        <ele>1747</ele>
        <time>2017-07-04T17:56:12+02:00</time>
      </trkpt>
      <trkpt lat="44.84183" lon="6.27848">
        <ele>1741</ele>
        <time>2017-07-04T17:56:17+02:00</time>
      </trkpt>
      <trkpt lat="44.84238" lon="6.27846">
        <ele>1733</ele>
        <time>2017-07-04T17:56:22+02:00</time>
      </trkpt>
      <trkpt lat="44.84286" lon="6.27855">
        <ele>1725</ele>
        <time>2017-07-04T17:56:27+02:00</time>
      </trkpt>
      <trkpt lat="44.84321" lon="6.27871">
        <ele>1715</ele>
        <time>2017-07-04T17:56:32+02:00</time>
      </trkpt>
      <trkpt lat="44.84364" lon="6.27869">
        <ele>1718</ele>
        <time>2017-07-04T17:56:37+02:00</time>
      </trkpt>
      <trkpt lat="44.84329" lon="6.279">
        <ele>1698</ele>
        <time>2017-07-04T17:56:42+02:00</time>
      </trkpt>
      <trkpt lat="44.84375" lon="6.27898">
        <ele>1701</ele>
        <time>2017-07-04T17:56:47+02:00</time>
      </trkpt>
      <trkpt lat="44.84397" lon="6.27928">
        <ele>1687</ele>
        <time>2017-07-04T17:56:52+02:00</time>
      </trkpt>
      <trkpt lat="44.84398" lon="6.27982">
        <ele>1675</ele>
        <time>2017-07-04T17:56:57+02:00</time>
      </trkpt>
      <trkpt lat="44.84391" lon="6.28016">
        <ele>1668</ele>
        <time>2017-07-04T17:57:02+02:00</time>
      </trkpt>
      <trkpt lat="44.84347" lon="6.28032">
        <ele>1662</ele>
        <time>2017-07-04T17:57:07+02:00</time>
      </trkpt>
      <trkpt lat="44.84286" lon="6.28056">
        <ele>1656</ele>
        <time>2017-07-04T17:57:12+02:00</time>
      </trkpt>
      <trkpt lat="44.84269" lon="6.28077">
        <ele>1653</ele>
        <time>2017-07-04T17:57:17+02:00</time>
      </trkpt>
      <trkpt lat="44.84254" lon="6.28072">
        <ele>1653</ele>
        <time>2017-07-04T17:57:22+02:00</time>
      </trkpt>
      <trkpt lat="44.84235" lon="6.2808">
        <ele>1652</ele>
        <time>2017-07-04T17:57:27+02:00</time>
      </trkpt>
      <trkpt lat="44.84209" lon="6.28097">
        <ele>1649</ele>
        <time>2017-07-04T17:57:32+02:00</time>
      </trkpt>
      <trkpt lat="44.84167" lon="6.28096">
        <ele>1647</ele>
        <time>2017-07-04T17:57:37+02:00</time>
      </trkpt>
      <trkpt lat="44.84148" lon="6.28112">
        <ele>1643</ele>
        <time>2017-07-04T17:57:42+02:00</time>
      </trkpt>
    </trkseg>
  </trk>
</gpx>